sensor_id;sensor_type;location;lat;lon;timestamp;P1;durP1;ratioP1;P2;durP2;ratioP2
4638;SDS011;2332;38.646;-9.154;2023-01-04T00:01:36;5.03;;;3.50;;
4638;SDS011;2332;38.646;-9.154;2023-01-04T00:04:01;4.83;;;3.73;;
4638;SDS011;2332;38.646;-9.154;2023-01-04T00:06:27;4.37;;;3.30;;
4638;SDS011;2332;38.646;-9.154;2023-01-04T00:08:52;4.10;;;3.40;;
4638;SDS011;2332;38.646;-9.154;2023-01-04T00:11:19;7.53;;;4.43;;
4638;SDS011;2332;38.646;-9.154;2023-01-04T00:13:45;8.13;;;3.53;;
4638;SDS011;2332;38.646;-9.154;2023-01-04T00:16:12;8.57;;;3.40;;
4638;SDS011;2332;38.646;-9.154;2023-01-04T00:18:38;5.10;;;3.47;;
4638;SDS011;2332;38.646;-9.154;2023-01-04T00:21:36;8.13;;;4.07;;
4638;SDS011;2332;38.646;-9.154;2023-01-04T00:23:56;3.77;;;3.47;;
4638;SDS011;2332;38.646;-9.154;2023-01-04T00:26:25;10.03;;;4.33;;
4638;SDS011;2332;38.646;-9.154;2023-01-04T00:28:58;8.37;;;4.80;;
4638;SDS011;2332;38.646;-9.154;2023-01-04T00:31:24;6.27;;;4.20;;
4638;SDS011;2332;38.646;-9.154;2023-01-04T00:33:50;6.13;;;3.63;;
4638;SDS011;2332;38.646;-9.154;2023-01-04T00:36:17;5.07;;;3.43;;
4638;SDS011;2332;38.646;-9.154;2023-01-04T00:38:42;5.17;;;3.60;;
4638;SDS011;2332;38.646;-9.154;2023-01-04T00:41:09;6.20;;;3.70;;
4638;SDS011;2332;38.646;-9.154;2023-01-04T00:43:35;5.97;;;4.00;;
4638;SDS011;2332;38.646;-9.154;2023-01-04T00:46:00;8.10;;;4.47;;
4638;SDS011;2332;38.646;-9.154;2023-01-04T00:48:26;9.77;;;6.10;;
4638;SDS011;2332;38.646;-9.154;2023-01-04T00:50:52;9.30;;;6.10;;
4638;SDS011;2332;38.646;-9.154;2023-01-04T00:53:17;14.20;;;9.10;;
4638;SDS011;2332;38.646;-9.154;2023-01-04T00:55:43;18.00;;;9.20;;
4638;SDS011;2332;38.646;-9.154;2023-01-04T00:58:08;22.23;;;12.03;;
4638;SDS011;2332;38.646;-9.154;2023-01-04T01:00:34;19.87;;;11.23;;
4638;SDS011;2332;38.646;-9.154;2023-01-04T01:02:59;19.47;;;11.63;;
4638;SDS011;2332;38.646;-9.154;2023-01-04T01:05:25;22.60;;;13.13;;
4638;SDS011;2332;38.646;-9.154;2023-01-04T01:07:50;19.43;;;11.30;;
4638;SDS011;2332;38.646;-9.154;2023-01-04T01:10:16;29.00;;;14.40;;
4638;SDS011;2332;38.646;-9.154;2023-01-04T01:12:41;24.27;;;15.83;;
4638;SDS011;2332;38.646;-9.154;2023-01-04T01:15:07;26.83;;;17.90;;
4638;SDS011;2332;38.646;-9.154;2023-01-04T01:17:32;30.73;;;13.97;;
4638;SDS011;2332;38.646;-9.154;2023-01-04T01:19:58;23.07;;;14.60;;
4638;SDS011;2332;38.646;-9.154;2023-01-04T01:22:24;27.27;;;15.23;;
4638;SDS011;2332;38.646;-9.154;2023-01-04T01:24:49;30.03;;;15.20;;
4638;SDS011;2332;38.646;-9.154;2023-01-04T01:27:14;21.13;;;15.20;;
4638;SDS011;2332;38.646;-9.154;2023-01-04T01:29:40;25.10;;;16.30;;
4638;SDS011;2332;38.646;-9.154;2023-01-04T01:32:05;26.50;;;15.70;;
4638;SDS011;2332;38.646;-9.154;2023-01-04T01:34:31;20.50;;;14.53;;
4638;SDS011;2332;38.646;-9.154;2023-01-04T01:36:56;20.80;;;15.53;;
4638;SDS011;2332;38.646;-9.154;2023-01-04T01:39:21;27.70;;;16.53;;
4638;SDS011;2332;38.646;-9.154;2023-01-04T01:41:47;23.47;;;15.70;;
4638;SDS011;2332;38.646;-9.154;2023-01-04T01:46:44;25.97;;;15.23;;
4638;SDS011;2332;38.646;-9.154;2023-01-04T01:51:42;24.03;;;15.67;;
4638;SDS011;2332;38.646;-9.154;2023-01-04T01:54:12;20.13;;;15.20;;
4638;SDS011;2332;38.646;-9.154;2023-01-04T01:56:41;26.20;;;15.47;;
4638;SDS011;2332;38.646;-9.154;2023-01-04T01:59:07;20.90;;;14.57;;
4638;SDS011;2332;38.646;-9.154;2023-01-04T02:01:33;24.90;;;14.80;;
4638;SDS011;2332;38.646;-9.154;2023-01-04T02:04:00;21.80;;;14.20;;
4638;SDS011;2332;38.646;-9.154;2023-01-04T02:06:28;24.80;;;15.43;;
4638;SDS011;2332;38.646;-9.154;2023-01-04T02:08:55;23.20;;;15.67;;
4638;SDS011;2332;38.646;-9.154;2023-01-04T02:11:20;22.73;;;14.10;;
4638;SDS011;2332;38.646;-9.154;2023-01-04T02:13:46;17.20;;;13.60;;
4638;SDS011;2332;38.646;-9.154;2023-01-04T02:24:42;23.47;;;13.43;;
4638;SDS011;2332;38.646;-9.154;2023-01-04T02:32:54;24.70;;;16.80;;
4638;SDS011;2332;38.646;-9.154;2023-01-04T02:37:57;24.03;;;15.80;;
4638;SDS011;2332;38.646;-9.154;2023-01-04T02:45:56;18.87;;;10.50;;
4638;SDS011;2332;38.646;-9.154;2023-01-04T02:48:23;11.50;;;8.07;;
4638;SDS011;2332;38.646;-9.154;2023-01-04T02:53:51;12.70;;;7.97;;
4638;SDS011;2332;38.646;-9.154;2023-01-04T02:56:22;8.40;;;7.20;;
4638;SDS011;2332;38.646;-9.154;2023-01-04T03:07:08;8.70;;;7.00;;
4638;SDS011;2332;38.646;-9.154;2023-01-04T03:09:35;8.10;;;6.93;;
4638;SDS011;2332;38.646;-9.154;2023-01-04T03:12:04;10.87;;;7.17;;
4638;SDS011;2332;38.646;-9.154;2023-01-04T03:14:50;12.17;;;6.47;;
4638;SDS011;2332;38.646;-9.154;2023-01-04T03:17:16;10.80;;;7.27;;
4638;SDS011;2332;38.646;-9.154;2023-01-04T03:19:44;12.00;;;7.03;;
4638;SDS011;2332;38.646;-9.154;2023-01-04T03:22:23;14.17;;;7.30;;
4638;SDS011;2332;38.646;-9.154;2023-01-04T03:25:08;12.90;;;8.33;;
4638;SDS011;2332;38.646;-9.154;2023-01-04T03:27:52;14.77;;;7.53;;
4638;SDS011;2332;38.646;-9.154;2023-01-04T03:30:44;13.07;;;7.03;;
4638;SDS011;2332;38.646;-9.154;2023-01-04T03:33:29;11.37;;;7.60;;
4638;SDS011;2332;38.646;-9.154;2023-01-04T03:38:47;10.17;;;7.83;;
4638;SDS011;2332;38.646;-9.154;2023-01-04T03:44:38;11.77;;;7.17;;
4638;SDS011;2332;38.646;-9.154;2023-01-04T03:47:28;8.30;;;6.60;;
4638;SDS011;2332;38.646;-9.154;2023-01-04T03:50:22;8.70;;;6.60;;
4638;SDS011;2332;38.646;-9.154;2023-01-04T03:52:49;10.00;;;6.30;;
4638;SDS011;2332;38.646;-9.154;2023-01-04T03:55:15;10.50;;;5.87;;
4638;SDS011;2332;38.646;-9.154;2023-01-04T03:57:41;7.13;;;6.40;;
4638;SDS011;2332;38.646;-9.154;2023-01-04T04:00:09;8.67;;;6.47;;
4638;SDS011;2332;38.646;-9.154;2023-01-04T04:02:35;7.83;;;6.20;;
4638;SDS011;2332;38.646;-9.154;2023-01-04T04:05:00;10.80;;;7.30;;
4638;SDS011;2332;38.646;-9.154;2023-01-04T04:07:44;11.50;;;8.03;;
4638;SDS011;2332;38.646;-9.154;2023-01-04T04:10:28;13.83;;;8.27;;
4638;SDS011;2332;38.646;-9.154;2023-01-04T04:12:53;10.50;;;7.33;;
4638;SDS011;2332;38.646;-9.154;2023-01-04T04:15:19;10.33;;;7.67;;
4638;SDS011;2332;38.646;-9.154;2023-01-04T04:17:44;10.33;;;8.10;;
4638;SDS011;2332;38.646;-9.154;2023-01-04T04:20:10;10.90;;;7.53;;
4638;SDS011;2332;38.646;-9.154;2023-01-04T04:22:37;10.97;;;7.77;;
4638;SDS011;2332;38.646;-9.154;2023-01-04T04:25:02;11.90;;;7.63;;
4638;SDS011;2332;38.646;-9.154;2023-01-04T04:27:27;10.17;;;7.43;;
4638;SDS011;2332;38.646;-9.154;2023-01-04T04:29:53;12.43;;;8.60;;
4638;SDS011;2332;38.646;-9.154;2023-01-04T04:32:18;11.17;;;8.57;;
4638;SDS011;2332;38.646;-9.154;2023-01-04T04:34:43;14.10;;;9.03;;
4638;SDS011;2332;38.646;-9.154;2023-01-04T04:37:09;15.70;;;8.97;;
4638;SDS011;2332;38.646;-9.154;2023-01-04T04:39:34;14.97;;;10.40;;
4638;SDS011;2332;38.646;-9.154;2023-01-04T04:42:00;17.17;;;9.27;;
4638;SDS011;2332;38.646;-9.154;2023-01-04T04:44:25;16.13;;;9.80;;
4638;SDS011;2332;38.646;-9.154;2023-01-04T04:46:50;14.50;;;9.53;;
4638;SDS011;2332;38.646;-9.154;2023-01-04T04:49:16;15.47;;;9.60;;
4638;SDS011;2332;38.646;-9.154;2023-01-04T04:51:41;14.10;;;10.93;;
4638;SDS011;2332;38.646;-9.154;2023-01-04T04:54:08;13.23;;;9.80;;
4638;SDS011;2332;38.646;-9.154;2023-01-04T04:56:34;15.10;;;10.30;;
4638;SDS011;2332;38.646;-9.154;2023-01-04T04:59:01;15.70;;;10.23;;
4638;SDS011;2332;38.646;-9.154;2023-01-04T05:01:26;27.20;;;12.30;;
4638;SDS011;2332;38.646;-9.154;2023-01-04T05:03:52;16.80;;;10.47;;
4638;SDS011;2332;38.646;-9.154;2023-01-04T05:06:20;14.60;;;9.77;;
4638;SDS011;2332;38.646;-9.154;2023-01-04T05:08:45;16.70;;;11.23;;
4638;SDS011;2332;38.646;-9.154;2023-01-04T05:11:11;16.30;;;10.43;;
4638;SDS011;2332;38.646;-9.154;2023-01-04T05:13:36;17.07;;;10.63;;
4638;SDS011;2332;38.646;-9.154;2023-01-04T05:16:02;17.37;;;11.50;;
4638;SDS011;2332;38.646;-9.154;2023-01-04T05:18:28;18.73;;;10.97;;
4638;SDS011;2332;38.646;-9.154;2023-01-04T05:20:53;13.10;;;10.50;;
4638;SDS011;2332;38.646;-9.154;2023-01-04T05:23:19;15.67;;;11.20;;
4638;SDS011;2332;38.646;-9.154;2023-01-04T05:25:45;16.67;;;10.93;;
4638;SDS011;2332;38.646;-9.154;2023-01-04T05:28:14;16.87;;;10.60;;
4638;SDS011;2332;38.646;-9.154;2023-01-04T05:30:40;15.60;;;10.30;;
4638;SDS011;2332;38.646;-9.154;2023-01-04T05:33:14;14.03;;;9.43;;
4638;SDS011;2332;38.646;-9.154;2023-01-04T05:35:40;13.20;;;10.03;;
4638;SDS011;2332;38.646;-9.154;2023-01-04T05:38:05;12.97;;;8.37;;
4638;SDS011;2332;38.646;-9.154;2023-01-04T05:40:31;11.47;;;8.00;;
4638;SDS011;2332;38.646;-9.154;2023-01-04T05:42:56;8.43;;;6.93;;
4638;SDS011;2332;38.646;-9.154;2023-01-04T05:45:22;9.60;;;7.17;;
4638;SDS011;2332;38.646;-9.154;2023-01-04T05:47:50;6.40;;;5.80;;
4638;SDS011;2332;38.646;-9.154;2023-01-04T05:50:16;10.27;;;6.23;;
4638;SDS011;2332;38.646;-9.154;2023-01-04T05:52:42;13.37;;;6.17;;
4638;SDS011;2332;38.646;-9.154;2023-01-04T05:55:07;10.70;;;6.33;;
4638;SDS011;2332;38.646;-9.154;2023-01-04T05:57:33;7.83;;;6.87;;
4638;SDS011;2332;38.646;-9.154;2023-01-04T05:59:58;9.47;;;6.87;;
4638;SDS011;2332;38.646;-9.154;2023-01-04T06:02:25;9.57;;;6.67;;
4638;SDS011;2332;38.646;-9.154;2023-01-04T06:04:51;6.70;;;5.87;;
4638;SDS011;2332;38.646;-9.154;2023-01-04T06:07:16;10.83;;;6.63;;
4638;SDS011;2332;38.646;-9.154;2023-01-04T06:09:42;8.20;;;5.87;;
4638;SDS011;2332;38.646;-9.154;2023-01-04T06:12:08;11.03;;;6.03;;
4638;SDS011;2332;38.646;-9.154;2023-01-04T06:14:33;6.67;;;5.90;;
4638;SDS011;2332;38.646;-9.154;2023-01-04T06:16:59;8.07;;;6.27;;
4638;SDS011;2332;38.646;-9.154;2023-01-04T06:19:24;8.50;;;5.70;;
4638;SDS011;2332;38.646;-9.154;2023-01-04T06:21:50;7.03;;;5.57;;
4638;SDS011;2332;38.646;-9.154;2023-01-04T06:24:15;6.77;;;5.37;;
4638;SDS011;2332;38.646;-9.154;2023-01-04T06:26:41;6.97;;;6.00;;
4638;SDS011;2332;38.646;-9.154;2023-01-04T06:29:06;7.33;;;5.47;;
4638;SDS011;2332;38.646;-9.154;2023-01-04T06:31:32;8.57;;;6.37;;
4638;SDS011;2332;38.646;-9.154;2023-01-04T06:34:00;7.63;;;6.50;;
4638;SDS011;2332;38.646;-9.154;2023-01-04T06:36:26;11.17;;;6.23;;
4638;SDS011;2332;38.646;-9.154;2023-01-04T06:38:51;14.47;;;6.60;;
4638;SDS011;2332;38.646;-9.154;2023-01-04T06:41:16;10.37;;;6.93;;
4638;SDS011;2332;38.646;-9.154;2023-01-04T06:43:42;8.37;;;6.30;;
4638;SDS011;2332;38.646;-9.154;2023-01-04T06:46:07;9.80;;;5.90;;
4638;SDS011;2332;38.646;-9.154;2023-01-04T06:48:33;8.77;;;5.67;;
4638;SDS011;2332;38.646;-9.154;2023-01-04T06:50:58;8.00;;;6.00;;
4638;SDS011;2332;38.646;-9.154;2023-01-04T06:53:24;7.70;;;6.50;;
4638;SDS011;2332;38.646;-9.154;2023-01-04T06:55:49;8.83;;;6.33;;
4638;SDS011;2332;38.646;-9.154;2023-01-04T06:58:14;12.10;;;6.40;;
4638;SDS011;2332;38.646;-9.154;2023-01-04T07:00:40;7.87;;;5.73;;
4638;SDS011;2332;38.646;-9.154;2023-01-04T07:03:06;10.93;;;6.00;;
4638;SDS011;2332;38.646;-9.154;2023-01-04T07:05:31;9.00;;;6.00;;
4638;SDS011;2332;38.646;-9.154;2023-01-04T07:08:00;6.23;;;5.50;;
4638;SDS011;2332;38.646;-9.154;2023-01-04T07:10:25;7.87;;;6.03;;
4638;SDS011;2332;38.646;-9.154;2023-01-04T07:12:51;8.70;;;6.40;;
4638;SDS011;2332;38.646;-9.154;2023-01-04T07:15:16;5.90;;;5.30;;
4638;SDS011;2332;38.646;-9.154;2023-01-04T07:17:42;7.13;;;5.03;;
4638;SDS011;2332;38.646;-9.154;2023-01-04T07:20:07;7.87;;;5.53;;
4638;SDS011;2332;38.646;-9.154;2023-01-04T07:22:33;8.40;;;5.43;;
4638;SDS011;2332;38.646;-9.154;2023-01-04T07:24:58;9.13;;;5.97;;
4638;SDS011;2332;38.646;-9.154;2023-01-04T07:27:23;9.50;;;6.13;;
4638;SDS011;2332;38.646;-9.154;2023-01-04T07:29:49;13.37;;;6.20;;
4638;SDS011;2332;38.646;-9.154;2023-01-04T07:32:14;6.23;;;5.17;;
4638;SDS011;2332;38.646;-9.154;2023-01-04T07:34:40;9.23;;;6.23;;
4638;SDS011;2332;38.646;-9.154;2023-01-04T07:37:08;9.30;;;5.23;;
4638;SDS011;2332;38.646;-9.154;2023-01-04T07:39:33;7.37;;;5.57;;
4638;SDS011;2332;38.646;-9.154;2023-01-04T07:41:59;8.20;;;5.53;;
4638;SDS011;2332;38.646;-9.154;2023-01-04T07:44:24;6.43;;;5.67;;
4638;SDS011;2332;38.646;-9.154;2023-01-04T07:46:51;8.53;;;5.60;;
4638;SDS011;2332;38.646;-9.154;2023-01-04T07:49:17;8.10;;;5.27;;
4638;SDS011;2332;38.646;-9.154;2023-01-04T07:51:42;6.93;;;5.30;;
4638;SDS011;2332;38.646;-9.154;2023-01-04T07:54:08;4.90;;;4.50;;
4638;SDS011;2332;38.646;-9.154;2023-01-04T07:56:34;7.20;;;4.60;;
4638;SDS011;2332;38.646;-9.154;2023-01-04T07:58:59;5.00;;;4.43;;
4638;SDS011;2332;38.646;-9.154;2023-01-04T08:01:25;5.10;;;4.60;;
4638;SDS011;2332;38.646;-9.154;2023-01-04T08:03:51;7.23;;;4.73;;
4638;SDS011;2332;38.646;-9.154;2023-01-04T08:06:17;7.53;;;4.43;;
4638;SDS011;2332;38.646;-9.154;2023-01-04T08:08:43;4.37;;;4.03;;
4638;SDS011;2332;38.646;-9.154;2023-01-04T08:11:10;5.30;;;4.63;;
4638;SDS011;2332;38.646;-9.154;2023-01-04T08:13:35;7.00;;;4.40;;
4638;SDS011;2332;38.646;-9.154;2023-01-04T08:16:01;5.97;;;4.80;;
4638;SDS011;2332;38.646;-9.154;2023-01-04T08:18:26;8.13;;;5.00;;
4638;SDS011;2332;38.646;-9.154;2023-01-04T08:21:05;6.40;;;4.40;;
4638;SDS011;2332;38.646;-9.154;2023-01-04T08:23:31;4.37;;;3.97;;
4638;SDS011;2332;38.646;-9.154;2023-01-04T08:26:00;4.60;;;4.13;;
4638;SDS011;2332;38.646;-9.154;2023-01-04T08:28:26;5.40;;;4.63;;
4638;SDS011;2332;38.646;-9.154;2023-01-04T08:30:51;6.33;;;4.70;;
4638;SDS011;2332;38.646;-9.154;2023-01-04T08:33:16;5.27;;;4.77;;
4638;SDS011;2332;38.646;-9.154;2023-01-04T08:35:42;5.50;;;4.90;;
4638;SDS011;2332;38.646;-9.154;2023-01-04T08:38:07;8.03;;;4.63;;
4638;SDS011;2332;38.646;-9.154;2023-01-04T08:40:33;4.83;;;4.33;;
4638;SDS011;2332;38.646;-9.154;2023-01-04T08:42:58;7.43;;;4.80;;
4638;SDS011;2332;38.646;-9.154;2023-01-04T08:45:23;8.80;;;4.20;;
4638;SDS011;2332;38.646;-9.154;2023-01-04T08:47:49;5.80;;;4.67;;
4638;SDS011;2332;38.646;-9.154;2023-01-04T08:50:14;4.90;;;4.47;;
4638;SDS011;2332;38.646;-9.154;2023-01-04T08:52:41;9.00;;;4.10;;
4638;SDS011;2332;38.646;-9.154;2023-01-04T08:55:06;7.90;;;4.03;;
4638;SDS011;2332;38.646;-9.154;2023-01-04T08:57:32;3.87;;;3.57;;
4638;SDS011;2332;38.646;-9.154;2023-01-04T08:59:58;6.67;;;3.93;;
4638;SDS011;2332;38.646;-9.154;2023-01-04T09:02:25;6.17;;;4.20;;
4638;SDS011;2332;38.646;-9.154;2023-01-04T09:04:50;4.03;;;3.73;;
4638;SDS011;2332;38.646;-9.154;2023-01-04T09:07:16;3.63;;;3.07;;
4638;SDS011;2332;38.646;-9.154;2023-01-04T09:09:42;3.90;;;3.43;;
4638;SDS011;2332;38.646;-9.154;2023-01-04T09:12:07;6.70;;;4.70;;
4638;SDS011;2332;38.646;-9.154;2023-01-04T09:14:32;5.00;;;4.27;;
4638;SDS011;2332;38.646;-9.154;2023-01-04T09:16:58;5.60;;;3.90;;
4638;SDS011;2332;38.646;-9.154;2023-01-04T09:19:23;4.73;;;3.80;;
4638;SDS011;2332;38.646;-9.154;2023-01-04T09:21:49;5.77;;;3.70;;
4638;SDS011;2332;38.646;-9.154;2023-01-04T09:24:14;5.17;;;4.67;;
4638;SDS011;2332;38.646;-9.154;2023-01-04T09:26:40;9.60;;;7.77;;
4638;SDS011;2332;38.646;-9.154;2023-01-04T09:29:05;9.30;;;7.40;;
4638;SDS011;2332;38.646;-9.154;2023-01-04T09:31:30;9.03;;;5.27;;
4638;SDS011;2332;38.646;-9.154;2023-01-04T09:33:56;4.10;;;3.47;;
4638;SDS011;2332;38.646;-9.154;2023-01-04T09:36:22;3.50;;;3.30;;
4638;SDS011;2332;38.646;-9.154;2023-01-04T09:38:51;5.67;;;3.90;;
4638;SDS011;2332;38.646;-9.154;2023-01-04T09:41:21;6.63;;;4.30;;
4638;SDS011;2332;38.646;-9.154;2023-01-04T09:43:49;7.57;;;3.77;;
4638;SDS011;2332;38.646;-9.154;2023-01-04T09:46:22;3.40;;;3.10;;
4638;SDS011;2332;38.646;-9.154;2023-01-04T09:48:48;3.47;;;3.17;;
4638;SDS011;2332;38.646;-9.154;2023-01-04T09:51:16;4.10;;;3.50;;
4638;SDS011;2332;38.646;-9.154;2023-01-04T09:53:46;5.90;;;3.70;;
4638;SDS011;2332;38.646;-9.154;2023-01-04T09:56:18;8.17;;;3.37;;
4638;SDS011;2332;38.646;-9.154;2023-01-04T09:58:44;3.50;;;3.20;;
4638;SDS011;2332;38.646;-9.154;2023-01-04T10:01:13;3.97;;;3.50;;
4638;SDS011;2332;38.646;-9.154;2023-01-04T10:03:40;3.47;;;3.17;;
4638;SDS011;2332;38.646;-9.154;2023-01-04T10:06:10;3.83;;;3.47;;
4638;SDS011;2332;38.646;-9.154;2023-01-04T10:08:36;3.43;;;3.13;;
4638;SDS011;2332;38.646;-9.154;2023-01-04T10:21:37;4.00;;;3.53;;
4638;SDS011;2332;38.646;-9.154;2023-01-04T10:26:41;6.43;;;3.60;;
4638;SDS011;2332;38.646;-9.154;2023-01-04T10:31:58;4.80;;;3.77;;
4638;SDS011;2332;38.646;-9.154;2023-01-04T10:34:58;6.00;;;4.37;;
4638;SDS011;2332;38.646;-9.154;2023-01-04T10:37:24;8.73;;;3.53;;
4638;SDS011;2332;38.646;-9.154;2023-01-04T10:39:55;14.10;;;4.20;;
4638;SDS011;2332;38.646;-9.154;2023-01-04T10:42:33;8.13;;;3.93;;
4638;SDS011;2332;38.646;-9.154;2023-01-04T10:49:54;3.67;;;3.37;;
4638;SDS011;2332;38.646;-9.154;2023-01-04T10:52:40;8.80;;;5.03;;
4638;SDS011;2332;38.646;-9.154;2023-01-04T10:55:09;3.80;;;3.50;;
4638;SDS011;2332;38.646;-9.154;2023-01-04T10:58:19;4.93;;;4.00;;
4638;SDS011;2332;38.646;-9.154;2023-01-04T11:00:27;6.90;;;3.93;;
4638;SDS011;2332;38.646;-9.154;2023-01-04T11:03:04;4.53;;;3.87;;
4638;SDS011;2332;38.646;-9.154;2023-01-04T11:05:40;5.10;;;3.90;;
4638;SDS011;2332;38.646;-9.154;2023-01-04T11:08:13;4.50;;;3.53;;
4638;SDS011;2332;38.646;-9.154;2023-01-04T11:10:41;5.77;;;4.10;;
4638;SDS011;2332;38.646;-9.154;2023-01-04T11:13:09;9.80;;;4.23;;
4638;SDS011;2332;38.646;-9.154;2023-01-04T11:15:34;4.60;;;4.13;;
4638;SDS011;2332;38.646;-9.154;2023-01-04T11:18:01;4.87;;;4.07;;
4638;SDS011;2332;38.646;-9.154;2023-01-04T11:20:28;5.90;;;5.20;;
4638;SDS011;2332;38.646;-9.154;2023-01-04T11:23:00;7.10;;;3.90;;
4638;SDS011;2332;38.646;-9.154;2023-01-04T11:25:28;8.07;;;4.80;;
4638;SDS011;2332;38.646;-9.154;2023-01-04T11:27:58;4.73;;;4.27;;
4638;SDS011;2332;38.646;-9.154;2023-01-04T11:30:24;8.10;;;5.07;;
4638;SDS011;2332;38.646;-9.154;2023-01-04T11:33:02;10.97;;;5.63;;
4638;SDS011;2332;38.646;-9.154;2023-01-04T11:35:37;9.80;;;5.30;;
4638;SDS011;2332;38.646;-9.154;2023-01-04T11:38:11;7.30;;;5.50;;
4638;SDS011;2332;38.646;-9.154;2023-01-04T11:40:37;6.40;;;5.20;;
4638;SDS011;2332;38.646;-9.154;2023-01-04T11:43:14;6.07;;;4.90;;
4638;SDS011;2332;38.646;-9.154;2023-01-04T11:45:41;5.70;;;4.63;;
4638;SDS011;2332;38.646;-9.154;2023-01-04T11:48:16;5.93;;;5.27;;
4638;SDS011;2332;38.646;-9.154;2023-01-04T11:50:43;5.23;;;4.47;;
4638;SDS011;2332;38.646;-9.154;2023-01-04T11:53:55;6.23;;;5.30;;
4638;SDS011;2332;38.646;-9.154;2023-01-04T11:56:28;5.17;;;4.70;;
4638;SDS011;2332;38.646;-9.154;2023-01-04T11:59:31;6.63;;;5.20;;
4638;SDS011;2332;38.646;-9.154;2023-01-04T12:01:33;6.47;;;5.20;;
4638;SDS011;2332;38.646;-9.154;2023-01-04T12:04:02;6.60;;;5.10;;
4638;SDS011;2332;38.646;-9.154;2023-01-04T12:06:40;9.43;;;5.47;;
4638;SDS011;2332;38.646;-9.154;2023-01-04T12:09:16;7.20;;;5.90;;
4638;SDS011;2332;38.646;-9.154;2023-01-04T12:11:44;5.63;;;5.10;;
4638;SDS011;2332;38.646;-9.154;2023-01-04T12:14:21;6.73;;;5.50;;
4638;SDS011;2332;38.646;-9.154;2023-01-04T12:19:32;6.50;;;5.90;;
4638;SDS011;2332;38.646;-9.154;2023-01-04T12:22:00;7.13;;;5.77;;
4638;SDS011;2332;38.646;-9.154;2023-01-04T12:24:28;6.53;;;5.83;;
4638;SDS011;2332;38.646;-9.154;2023-01-04T12:26:55;8.47;;;5.83;;
4638;SDS011;2332;38.646;-9.154;2023-01-04T12:37:01;7.03;;;6.23;;
4638;SDS011;2332;38.646;-9.154;2023-01-04T12:52:38;10.53;;;7.53;;
4638;SDS011;2332;38.646;-9.154;2023-01-04T12:55:24;11.30;;;7.73;;
4638;SDS011;2332;38.646;-9.154;2023-01-04T12:57:50;10.70;;;7.00;;
4638;SDS011;2332;38.646;-9.154;2023-01-04T13:00:16;7.93;;;7.03;;
4638;SDS011;2332;38.646;-9.154;2023-01-04T13:02:46;8.63;;;7.00;;
4638;SDS011;2332;38.646;-9.154;2023-01-04T13:07:55;7.77;;;6.87;;
4638;SDS011;2332;38.646;-9.154;2023-01-04T13:10:40;8.70;;;6.53;;
4638;SDS011;2332;38.646;-9.154;2023-01-04T13:18:19;8.20;;;6.40;;
4638;SDS011;2332;38.646;-9.154;2023-01-04T13:20:45;9.90;;;7.50;;
4638;SDS011;2332;38.646;-9.154;2023-01-04T13:23:11;9.10;;;7.17;;
4638;SDS011;2332;38.646;-9.154;2023-01-04T13:25:37;12.70;;;8.10;;
4638;SDS011;2332;38.646;-9.154;2023-01-04T13:28:03;18.53;;;10.93;;
4638;SDS011;2332;38.646;-9.154;2023-01-04T13:30:30;8.67;;;6.80;;
4638;SDS011;2332;38.646;-9.154;2023-01-04T13:32:56;12.70;;;8.30;;
4638;SDS011;2332;38.646;-9.154;2023-01-04T13:35:21;9.23;;;7.70;;
4638;SDS011;2332;38.646;-9.154;2023-01-04T13:37:47;9.97;;;7.90;;
4638;SDS011;2332;38.646;-9.154;2023-01-04T13:42:48;10.17;;;7.40;;
4638;SDS011;2332;38.646;-9.154;2023-01-04T13:47:56;10.20;;;7.20;;
4638;SDS011;2332;38.646;-9.154;2023-01-04T13:50:32;8.27;;;6.90;;
4638;SDS011;2332;38.646;-9.154;2023-01-04T13:52:58;10.60;;;6.57;;
4638;SDS011;2332;38.646;-9.154;2023-01-04T13:55:26;8.77;;;6.50;;
4638;SDS011;2332;38.646;-9.154;2023-01-04T13:57:55;9.40;;;6.63;;
4638;SDS011;2332;38.646;-9.154;2023-01-04T14:00:21;7.50;;;6.70;;
4638;SDS011;2332;38.646;-9.154;2023-01-04T14:02:47;9.53;;;6.43;;
4638;SDS011;2332;38.646;-9.154;2023-01-04T14:05:16;13.47;;;6.33;;
4638;SDS011;2332;38.646;-9.154;2023-01-04T14:07:42;7.83;;;6.23;;
4638;SDS011;2332;38.646;-9.154;2023-01-04T14:10:12;6.00;;;5.40;;
4638;SDS011;2332;38.646;-9.154;2023-01-04T14:12:42;7.17;;;6.30;;
4638;SDS011;2332;38.646;-9.154;2023-01-04T14:15:21;8.23;;;5.87;;
4638;SDS011;2332;38.646;-9.154;2023-01-04T14:17:54;6.27;;;5.67;;
4638;SDS011;2332;38.646;-9.154;2023-01-04T14:28:15;5.63;;;5.00;;
4638;SDS011;2332;38.646;-9.154;2023-01-04T14:30:40;6.13;;;5.53;;
4638;SDS011;2332;38.646;-9.154;2023-01-04T14:35:37;6.33;;;4.80;;
4638;SDS011;2332;38.646;-9.154;2023-01-04T14:38:03;6.53;;;5.60;;
4638;SDS011;2332;38.646;-9.154;2023-01-04T14:40:29;5.70;;;5.30;;
4638;SDS011;2332;38.646;-9.154;2023-01-04T14:42:56;5.03;;;4.63;;
4638;SDS011;2332;38.646;-9.154;2023-01-04T14:45:21;4.67;;;4.27;;
4638;SDS011;2332;38.646;-9.154;2023-01-04T14:47:47;10.37;;;5.53;;
4638;SDS011;2332;38.646;-9.154;2023-01-04T14:50:13;4.80;;;4.40;;
4638;SDS011;2332;38.646;-9.154;2023-01-04T14:52:38;5.13;;;4.40;;
4638;SDS011;2332;38.646;-9.154;2023-01-04T14:55:04;4.97;;;4.57;;
4638;SDS011;2332;38.646;-9.154;2023-01-04T14:57:30;5.47;;;5.07;;
4638;SDS011;2332;38.646;-9.154;2023-01-04T14:59:55;5.37;;;4.87;;
4638;SDS011;2332;38.646;-9.154;2023-01-04T15:02:21;4.77;;;4.37;;
4638;SDS011;2332;38.646;-9.154;2023-01-04T15:04:47;6.40;;;4.70;;
4638;SDS011;2332;38.646;-9.154;2023-01-04T15:07:32;9.43;;;5.20;;
4638;SDS011;2332;38.646;-9.154;2023-01-04T15:09:59;9.13;;;4.70;;
4638;SDS011;2332;38.646;-9.154;2023-01-04T15:12:24;4.63;;;4.27;;
4638;SDS011;2332;38.646;-9.154;2023-01-04T15:14:49;4.33;;;4.03;;
4638;SDS011;2332;38.646;-9.154;2023-01-04T15:17:15;4.73;;;4.27;;
4638;SDS011;2332;38.646;-9.154;2023-01-04T15:19:40;4.40;;;3.80;;
4638;SDS011;2332;38.646;-9.154;2023-01-04T15:22:05;5.03;;;4.53;;
4638;SDS011;2332;38.646;-9.154;2023-01-04T15:24:31;6.00;;;5.10;;
4638;SDS011;2332;38.646;-9.154;2023-01-04T15:26:56;8.87;;;5.20;;
4638;SDS011;2332;38.646;-9.154;2023-01-04T15:29:22;6.60;;;4.67;;
4638;SDS011;2332;38.646;-9.154;2023-01-04T15:31:47;7.70;;;4.83;;
4638;SDS011;2332;38.646;-9.154;2023-01-04T15:34:12;16.23;;;5.50;;
4638;SDS011;2332;38.646;-9.154;2023-01-04T15:36:38;9.20;;;4.73;;
4638;SDS011;2332;38.646;-9.154;2023-01-04T15:39:04;9.37;;;4.90;;
4638;SDS011;2332;38.646;-9.154;2023-01-04T15:41:30;9.67;;;5.33;;
4638;SDS011;2332;38.646;-9.154;2023-01-04T15:44:14;5.87;;;4.50;;
4638;SDS011;2332;38.646;-9.154;2023-01-04T15:46:39;8.50;;;5.23;;
4638;SDS011;2332;38.646;-9.154;2023-01-04T15:49:05;10.43;;;4.87;;
4638;SDS011;2332;38.646;-9.154;2023-01-04T15:51:30;6.10;;;4.27;;
4638;SDS011;2332;38.646;-9.154;2023-01-04T15:53:56;5.47;;;4.33;;
4638;SDS011;2332;38.646;-9.154;2023-01-04T15:56:21;5.53;;;4.60;;
4638;SDS011;2332;38.646;-9.154;2023-01-04T15:58:50;4.97;;;4.40;;
4638;SDS011;2332;38.646;-9.154;2023-01-04T16:01:15;7.00;;;5.10;;
4638;SDS011;2332;38.646;-9.154;2023-01-04T16:03:41;6.60;;;4.80;;
4638;SDS011;2332;38.646;-9.154;2023-01-04T16:06:07;4.67;;;4.17;;
4638;SDS011;2332;38.646;-9.154;2023-01-04T16:08:32;3.60;;;3.40;;
4638;SDS011;2332;38.646;-9.154;2023-01-04T16:10:58;4.93;;;4.10;;
4638;SDS011;2332;38.646;-9.154;2023-01-04T16:13:23;6.53;;;4.83;;
4638;SDS011;2332;38.646;-9.154;2023-01-04T16:15:51;5.00;;;4.30;;
4638;SDS011;2332;38.646;-9.154;2023-01-04T16:18:17;4.60;;;4.20;;
4638;SDS011;2332;38.646;-9.154;2023-01-04T16:20:45;5.10;;;3.90;;
4638;SDS011;2332;38.646;-9.154;2023-01-04T16:23:10;5.10;;;4.00;;
4638;SDS011;2332;38.646;-9.154;2023-01-04T16:25:36;3.83;;;3.53;;
4638;SDS011;2332;38.646;-9.154;2023-01-04T16:28:01;5.10;;;4.00;;
4638;SDS011;2332;38.646;-9.154;2023-01-04T16:30:26;4.40;;;3.73;;
4638;SDS011;2332;38.646;-9.154;2023-01-04T16:32:56;4.70;;;4.00;;
4638;SDS011;2332;38.646;-9.154;2023-01-04T16:35:21;4.30;;;4.00;;
4638;SDS011;2332;38.646;-9.154;2023-01-04T16:37:47;6.00;;;4.00;;
4638;SDS011;2332;38.646;-9.154;2023-01-04T16:40:12;3.87;;;3.57;;
4638;SDS011;2332;38.646;-9.154;2023-01-04T16:42:37;10.17;;;4.30;;
4638;SDS011;2332;38.646;-9.154;2023-01-04T16:45:04;4.70;;;4.20;;
4638;SDS011;2332;38.646;-9.154;2023-01-04T16:47:35;6.57;;;3.70;;
4638;SDS011;2332;38.646;-9.154;2023-01-04T16:50:01;5.23;;;3.83;;
4638;SDS011;2332;38.646;-9.154;2023-01-04T16:52:27;5.13;;;4.00;;